createdAt,value
2022-11-17T00:00:22.664Z,-2.02
2022-11-17T00:03:25.650Z,-1.94
2022-11-17T00:06:28.694Z,-1.92
2022-11-17T00:09:31.746Z,-1.89
2022-11-17T00:12:53.274Z,-1.86
2022-11-17T00:15:56.255Z,-1.85
2022-11-17T00:19:17.776Z,-1.86
2022-11-17T00:22:21.234Z,-1.84
2022-11-17T00:25:24.206Z,-1.80
2022-11-17T00:28:27.220Z,-1.74
2022-11-17T00:31:50.310Z,-1.70
2022-11-17T00:34:53.300Z,-1.69
2022-11-17T00:38:14.999Z,-1.69
2022-11-17T00:41:18.047Z,-1.68
2022-11-17T00:44:21.175Z,-1.70
2022-11-17T00:47:24.141Z,-1.67
2022-11-17T00:50:27.239Z,-1.63
2022-11-17T00:53:30.293Z,-1.55
2022-11-17T00:56:34.296Z,-1.50
2022-11-17T00:59:37.422Z,-1.46
2022-11-17T01:02:40.354Z,-1.41
2022-11-17T01:05:43.425Z,-1.29
2022-11-17T01:08:46.931Z,-1.10
2022-11-17T01:11:51.896Z,-0.95
2022-11-17T01:14:54.890Z,-0.81
2022-11-17T01:17:57.866Z,-0.74
2022-11-17T01:21:22.235Z,-0.62
2022-11-17T01:24:25.262Z,-0.54
2022-11-17T01:27:28.316Z,-0.46
2022-11-17T01:30:31.315Z,-0.35
2022-11-17T01:33:34.717Z,-0.22
2022-11-17T01:36:58.862Z,-0.11
2022-11-17T01:40:02.010Z,-0.03
2022-11-17T01:43:09.830Z,-0.01
2022-11-17T01:46:25.773Z,-0.01
2022-11-17T01:49:29.844Z,0.05
2022-11-17T01:52:35.460Z,0.12
2022-11-17T01:55:56.773Z,0.23
2022-11-17T01:59:06.202Z,0.30
2022-11-17T02:02:09.450Z,0.34
2022-11-17T02:05:18.903Z,0.43
2022-11-17T02:08:25.016Z,0.54
2022-11-17T02:11:30.493Z,0.58
2022-11-17T02:14:33.995Z,0.67
2022-11-17T02:17:43.335Z,0.73
2022-11-17T02:21:07.917Z,0.77
2022-11-17T02:24:33.285Z,0.80
2022-11-17T02:27:51.485Z,0.85
2022-11-17T02:31:28.573Z,0.90
2022-11-17T02:35:03.412Z,0.96
2022-11-17T02:38:24.357Z,1.03
2022-11-17T02:41:37.085Z,1.06
2022-11-17T02:45:03.885Z,1.14
2022-11-17T02:48:14.614Z,1.17
2022-11-17T02:51:22.146Z,1.22
2022-11-17T02:54:27.854Z,1.31
2022-11-17T02:57:35.363Z,1.38
2022-11-17T03:01:12.546Z,1.47
2022-11-17T03:04:43.764Z,1.56
2022-11-17T03:08:10.237Z,1.62
2022-11-17T03:11:14.711Z,1.71
2022-11-17T03:14:28.309Z,1.83
2022-11-17T03:17:41.865Z,1.91
2022-11-17T03:20:57.212Z,1.99
2022-11-17T03:24:22.327Z,2.13
2022-11-17T03:27:27.389Z,2.23
2022-11-17T03:30:37.213Z,2.30
2022-11-17T03:33:42.437Z,2.36
2022-11-17T03:36:51.957Z,2.45
2022-11-17T03:39:59.189Z,2.52
2022-11-17T03:43:06.970Z,2.58
2022-11-17T03:46:15.203Z,2.64
2022-11-17T03:49:46.102Z,2.79
2022-11-17T03:52:50.118Z,2.93
2022-11-17T03:56:00.067Z,3.06
2022-11-17T03:59:11.871Z,3.19
2022-11-17T04:02:20.044Z,3.27
2022-11-17T04:05:23.246Z,3.40
2022-11-17T04:08:30.128Z,3.48
2022-11-17T04:11:51.782Z,3.54
2022-11-17T04:15:13.059Z,3.58
2022-11-17T04:18:16.907Z,3.65
2022-11-17T04:21:19.877Z,3.68
2022-11-17T04:24:23.026Z,3.69
2022-11-17T04:27:44.596Z,3.73
2022-11-17T04:30:47.483Z,3.85
2022-11-17T04:33:52.865Z,4.02
2022-11-17T04:36:55.918Z,4.09
2022-11-17T04:39:58.988Z,4.12
2022-11-17T04:43:02.015Z,4.16
2022-11-17T04:46:05.167Z,4.07
2022-11-17T04:49:09.306Z,4.09
2022-11-17T04:52:12.508Z,4.10
2022-11-17T04:55:15.743Z,4.07
2022-11-17T04:58:18.865Z,3.99
2022-11-17T05:01:24.236Z,4.07
2022-11-17T05:04:45.694Z,4.02
2022-11-17T05:07:48.750Z,4.13
2022-11-17T05:11:10.404Z,4.36
2022-11-17T05:14:15.092Z,4.60
2022-11-17T05:17:18.316Z,4.83
2022-11-17T05:20:21.422Z,4.98
2022-11-17T05:23:42.831Z,5.13
2022-11-17T05:26:47.483Z,5.43
2022-11-17T05:29:51.235Z,5.77
2022-11-17T05:32:54.204Z,6.10
2022-11-17T05:35:57.152Z,6.35
2022-11-17T05:39:00.655Z,6.52
2022-11-17T05:42:04.670Z,6.60
2022-11-17T05:45:08.394Z,6.72
2022-11-17T05:48:11.384Z,6.85
2022-11-17T05:51:14.499Z,6.77
2022-11-17T05:54:17.465Z,6.84
2022-11-17T05:57:29.238Z,7.08
2022-11-17T06:00:33.298Z,7.05
2022-11-17T06:03:42.410Z,7.05
2022-11-17T06:06:47.246Z,6.81
2022-11-17T06:09:51.775Z,6.48
2022-11-17T06:12:54.867Z,6.20
2022-11-17T06:16:00.409Z,6.06
2022-11-17T06:19:16.003Z,6.01
2022-11-17T06:22:19.115Z,5.67
2022-11-17T06:25:22.383Z,5.45
2022-11-17T06:28:27.492Z,5.22
2022-11-17T06:31:33.078Z,5.03
2022-11-17T06:34:36.484Z,4.86
2022-11-17T06:37:39.511Z,4.70
2022-11-17T06:40:43.015Z,4.58
2022-11-17T06:43:46.126Z,4.49
2022-11-17T06:46:49.486Z,4.39
2022-11-17T06:49:52.545Z,4.33
2022-11-17T06:52:59.998Z,4.35
2022-11-17T06:56:06.327Z,4.31
2022-11-17T06:59:09.423Z,4.28
2022-11-17T07:02:12.710Z,4.27
2022-11-17T07:05:16.064Z,4.38
2022-11-17T07:08:22.797Z,4.47
2022-11-17T07:11:25.968Z,4.53
2022-11-17T07:14:29.020Z,4.56
2022-11-17T07:17:33.120Z,4.72
2022-11-17T07:20:36.418Z,5.15
2022-11-17T07:23:40.421Z,5.67
2022-11-17T07:26:43.686Z,5.91
2022-11-17T07:29:46.867Z,5.92
2022-11-17T07:32:54.506Z,5.56
2022-11-17T07:36:02.581Z,5.16
2022-11-17T07:39:06.730Z,4.89
2022-11-17T07:42:10.137Z,4.64
2022-11-17T07:45:13.219Z,4.42
2022-11-17T07:48:16.298Z,4.21
2022-11-17T07:51:19.464Z,4.09
2022-11-17T07:54:22.791Z,3.94
2022-11-17T07:57:26.494Z,3.80
2022-11-17T08:00:32.383Z,3.78
2022-11-17T08:03:35.937Z,3.70
2022-11-17T08:06:39.067Z,3.55
2022-11-17T08:09:42.256Z,3.39
2022-11-17T08:12:45.559Z,3.23
2022-11-17T08:15:48.669Z,3.09
2022-11-17T08:18:52.713Z,2.93
2022-11-17T08:21:55.892Z,2.76
2022-11-17T08:24:59.059Z,2.62
2022-11-17T08:28:02.236Z,2.47
2022-11-17T08:31:08.238Z,2.36
2022-11-17T08:34:11.277Z,2.23
2022-11-17T08:37:15.699Z,2.14
2022-11-17T08:40:19.419Z,2.05
2022-11-17T08:43:28.827Z,2.00
2022-11-17T08:46:32.039Z,1.90
2022-11-17T08:49:35.264Z,1.81
2022-11-17T08:52:38.463Z,1.68
2022-11-17T08:55:41.902Z,1.56
2022-11-17T08:58:46.202Z,1.47
2022-11-17T09:01:49.303Z,1.38
2022-11-17T09:04:52.457Z,1.31
2022-11-17T09:07:55.632Z,1.22
2022-11-17T09:10:59.382Z,1.18
2022-11-17T09:14:02.463Z,1.14
2022-11-17T09:17:05.561Z,1.17
2022-11-17T09:20:08.911Z,1.33
2022-11-17T09:23:12.030Z,1.50
2022-11-17T09:26:17.155Z,1.57
2022-11-17T09:29:20.402Z,1.58
2022-11-17T09:32:23.417Z,1.49
2022-11-17T09:35:26.715Z,1.35
2022-11-17T09:38:30.116Z,1.22
2022-11-17T09:41:47.080Z,1.11
2022-11-17T09:45:04.292Z,1.04
2022-11-17T09:48:43.552Z,0.98
2022-11-17T09:51:43.338Z,0.96
2022-11-17T09:54:52.728Z,0.93
2022-11-17T09:58:12.044Z,0.88
2022-11-17T10:01:17.778Z,0.84
2022-11-17T10:04:20.964Z,0.81
2022-11-17T10:07:24.444Z,0.77
2022-11-17T10:10:36.583Z,0.69
2022-11-17T10:13:39.842Z,0.64
2022-11-17T10:16:54.917Z,0.61
2022-11-17T10:19:57.980Z,0.53
2022-11-17T10:23:03.776Z,0.47
2022-11-17T10:26:13.910Z,0.39
2022-11-17T10:29:23.922Z,0.32
2022-11-17T10:32:32.020Z,0.30
2022-11-17T10:35:36.625Z,0.21
2022-11-17T10:38:49.806Z,0.17
2022-11-17T10:41:53.119Z,0.14
2022-11-17T10:45:01.763Z,0.14
2022-11-17T10:48:37.672Z,0.10
2022-11-17T10:51:40.844Z,0.05
2022-11-17T10:54:44.670Z,0.02
2022-11-17T10:57:53.463Z,0.00
2022-11-17T11:01:02.710Z,-0.04
2022-11-17T11:04:26.156Z,-0.07
2022-11-17T11:07:29.176Z,-0.11
2022-11-17T11:10:36.264Z,-0.15
2022-11-17T11:13:53.436Z,-0.17
2022-11-17T11:16:56.678Z,-0.28
2022-11-17T11:20:00.129Z,-0.34
2022-11-17T11:23:15.301Z,-0.37
2022-11-17T11:26:30.226Z,-0.37
2022-11-17T11:29:50.876Z,-0.45
2022-11-17T11:32:59.935Z,-0.51
2022-11-17T11:36:21.162Z,-0.55
2022-11-17T11:39:41.552Z,-0.60
2022-11-17T11:43:04.896Z,-0.67
2022-11-17T11:46:21.655Z,-0.70
2022-11-17T11:49:46.767Z,-0.71
2022-11-17T11:52:59.428Z,-0.76
2022-11-17T11:56:41.364Z,-0.79
2022-11-17T11:59:53.283Z,-0.92
2022-11-17T12:03:14.720Z,-1.06
2022-11-17T12:06:43.117Z,-1.13
2022-11-17T12:10:00.891Z,-1.23
2022-11-17T12:13:05.941Z,-1.28
2022-11-17T12:16:20.186Z,-1.30
2022-11-17T12:19:50.680Z,-1.36
2022-11-17T12:23:10.795Z,-1.40
2022-11-17T12:26:29.298Z,-1.51
2022-11-17T12:29:32.538Z,-1.59
2022-11-17T12:32:50.595Z,-1.58
2022-11-17T12:36:30.108Z,-1.59
2022-11-17T12:40:09.360Z,-1.68
2022-11-17T12:43:28.324Z,-1.68
2022-11-17T12:46:33.833Z,-1.74
2022-11-17T12:50:18.952Z,-1.81
2022-11-17T12:53:56.163Z,-1.88
2022-11-17T12:57:07.896Z,-1.91
2022-11-17T13:00:19.900Z,-1.92
2022-11-17T13:03:49.127Z,-1.99
2022-11-17T13:07:07.222Z,-2.03
2022-11-17T13:10:31.643Z,-2.01
2022-11-17T13:13:37.032Z,-2.03
2022-11-17T13:16:47.396Z,-2.06
2022-11-17T13:19:59.575Z,-2.03
2022-11-17T13:23:05.315Z,-2.06
2022-11-17T13:26:12.692Z,-2.07
2022-11-17T13:29:23.211Z,-2.02
2022-11-17T13:32:29.214Z,-1.99
2022-11-17T13:35:35.572Z,-1.99
2022-11-17T13:38:48.568Z,-2.07
2022-11-17T13:41:51.914Z,-2.10
2022-11-17T13:44:58.053Z,-2.15
2022-11-17T13:48:01.213Z,-2.17
2022-11-17T13:51:28.695Z,-2.17
2022-11-17T13:54:32.169Z,-2.22
2022-11-17T13:57:35.398Z,-2.28
2022-11-17T14:00:38.529Z,-2.26
2022-11-17T14:03:43.537Z,-2.18
2022-11-17T14:07:30.242Z,-2.12
2022-11-17T14:10:36.526Z,-2.13
2022-11-17T14:13:47.669Z,-2.17
2022-11-17T14:16:50.852Z,-2.21
2022-11-17T14:19:54.352Z,-2.26
2022-11-17T14:23:09.088Z,-2.29
2022-11-17T14:26:22.418Z,-2.27
2022-11-17T14:29:25.851Z,-2.22
2022-11-17T14:32:28.978Z,-2.18
2022-11-17T14:35:31.992Z,-2.13
2022-11-17T14:38:35.068Z,-2.18
2022-11-17T14:41:38.450Z,-2.25
2022-11-17T14:44:41.572Z,-2.27
2022-11-17T14:47:45.015Z,-2.32
2022-11-17T14:50:48.620Z,-2.28
2022-11-17T14:53:51.959Z,-2.24
2022-11-17T14:56:54.967Z,-2.23
2022-11-17T14:59:58.084Z,-2.18
2022-11-17T15:03:01.112Z,-2.15
2022-11-17T15:06:15.233Z,-2.13
2022-11-17T15:09:22.057Z,-2.08
2022-11-17T15:12:25.270Z,-2.06
2022-11-17T15:15:28.338Z,-2.04
2022-11-17T15:18:32.203Z,-2.02
2022-11-17T15:21:35.356Z,-1.94
2022-11-17T15:24:38.578Z,-1.89
2022-11-17T15:27:41.583Z,-1.80
2022-11-17T15:30:44.981Z,-1.68
2022-11-17T15:33:49.203Z,-1.58
2022-11-17T15:36:52.261Z,-1.51
2022-11-17T15:39:55.351Z,-1.44
2022-11-17T15:42:58.464Z,-1.29
2022-11-17T15:46:06.974Z,-1.17
2022-11-17T15:49:09.962Z,-1.12
2022-11-17T15:52:13.152Z,-1.13
2022-11-17T15:55:16.348Z,-1.15
2022-11-17T15:58:19.482Z,-1.16
2022-11-17T16:01:29.970Z,-1.18
2022-11-17T16:04:33.301Z,-1.28
2022-11-17T16:07:36.391Z,-1.32
2022-11-17T16:10:39.889Z,-1.36
2022-11-17T16:13:43.086Z,-1.37
2022-11-17T16:16:48.484Z,-1.44
2022-11-17T16:19:51.557Z,-1.51
2022-11-17T16:22:54.691Z,-1.57
2022-11-17T16:25:58.906Z,-1.65
2022-11-17T16:29:04.842Z,-1.65
2022-11-17T16:32:07.956Z,-1.66
2022-11-17T16:35:11.039Z,-1.63
2022-11-17T16:38:16.810Z,-1.59
2022-11-17T16:41:23.801Z,-1.62
2022-11-17T16:44:27.054Z,-1.68
2022-11-17T16:47:30.265Z,-1.70
2022-11-17T16:50:37.793Z,-1.76
2022-11-17T16:53:41.063Z,-1.92
2022-11-17T16:56:44.363Z,-1.99
2022-11-17T16:59:47.557Z,-2.08
2022-11-17T17:02:50.919Z,-2.22
2022-11-17T17:05:54.026Z,-2.30
2022-11-17T17:08:59.840Z,-2.35
2022-11-17T17:12:02.825Z,-2.49
2022-11-17T17:15:06.416Z,-2.59
2022-11-17T17:18:09.591Z,-2.60
2022-11-17T17:21:16.218Z,-2.57
2022-11-17T17:24:19.317Z,-2.60
2022-11-17T17:27:22.745Z,-2.65
2022-11-17T17:30:25.834Z,-2.73
2022-11-17T17:33:33.142Z,-2.74
2022-11-17T17:36:37.815Z,-2.76
2022-11-17T17:39:40.883Z,-2.79
2022-11-17T17:42:43.928Z,-2.82
2022-11-17T17:45:47.099Z,-2.75
2022-11-17T17:48:50.865Z,-2.67
2022-11-17T17:51:53.957Z,-2.66
2022-11-17T17:54:57.036Z,-2.74
2022-11-17T17:58:00.055Z,-2.67
2022-11-17T18:01:42.797Z,-2.38
2022-11-17T18:04:45.913Z,-2.16
2022-11-17T18:07:49.516Z,-1.96
2022-11-17T18:10:52.633Z,-1.82
2022-11-17T18:13:55.820Z,-1.80
2022-11-17T18:16:59.276Z,-1.87
2022-11-17T18:20:02.442Z,-1.95
2022-11-17T18:23:05.511Z,-2.04
2022-11-17T18:26:11.366Z,-2.13
2022-11-17T18:29:22.693Z,-2.21
2022-11-17T18:32:26.056Z,-2.26
2022-11-17T18:35:29.225Z,-2.29
2022-11-17T18:38:34.253Z,-2.47
2022-11-17T18:41:37.765Z,-2.71
2022-11-17T18:44:40.975Z,-2.91
2022-11-17T18:47:44.003Z,-2.98
2022-11-17T18:51:17.423Z,-2.87
2022-11-17T18:54:12.506Z,-2.72
2022-11-17T18:57:15.720Z,-2.68
2022-11-17T19:00:20.678Z,-2.66
2022-11-17T19:03:24.940Z,-2.71
2022-11-17T19:06:28.297Z,-2.80
2022-11-17T19:09:31.326Z,-2.96
2022-11-17T19:12:34.359Z,-3.32
2022-11-17T19:15:37.359Z,-3.77
2022-11-17T19:18:41.150Z,-4.06
2022-11-17T19:21:44.893Z,-4.16
2022-11-17T19:24:48.077Z,-4.15
2022-11-17T19:27:51.222Z,-4.20
2022-11-17T19:30:54.352Z,-4.18
2022-11-17T19:33:58.416Z,-4.10
2022-11-17T19:37:02.857Z,-4.10
2022-11-17T19:40:06.445Z,-4.08
2022-11-17T19:43:09.608Z,-4.04
2022-11-17T19:46:17.044Z,-4.06
2022-11-17T19:49:20.082Z,-4.04
2022-11-17T19:52:23.134Z,-4.02
2022-11-17T19:55:26.528Z,-3.99
2022-11-17T19:58:29.659Z,-4.00
2022-11-17T20:01:34.176Z,-4.07
2022-11-17T20:04:37.255Z,-4.08
2022-11-17T20:07:40.542Z,-4.06
2022-11-17T20:10:43.928Z,-4.05
2022-11-17T20:13:47.663Z,-4.07
2022-11-17T20:16:50.709Z,-4.08
2022-11-17T20:19:53.759Z,-4.11
2022-11-17T20:22:56.832Z,-4.16
2022-11-17T20:26:02.923Z,-4.21
2022-11-17T20:29:06.015Z,-4.23
2022-11-17T20:32:09.114Z,-4.15
2022-11-17T20:35:12.210Z,-3.99
2022-11-17T20:38:15.855Z,-3.82
2022-11-17T20:41:21.437Z,-3.64
2022-11-17T20:44:24.581Z,-3.46
2022-11-17T20:47:28.271Z,-3.28
2022-11-17T20:50:32.587Z,-3.14
2022-11-17T20:53:36.185Z,-3.04
2022-11-17T20:56:39.426Z,-2.96
2022-11-17T20:59:42.591Z,-2.85
2022-11-17T21:02:45.653Z,-2.78
2022-11-17T21:05:59.751Z,-2.74
2022-11-17T21:09:02.965Z,-2.76
2022-11-17T21:12:06.453Z,-2.71
2022-11-17T21:15:09.871Z,-2.65
2022-11-17T21:18:25.250Z,-2.63
2022-11-17T21:21:28.319Z,-2.59
2022-11-17T21:24:31.430Z,-2.61
2022-11-17T21:27:34.506Z,-2.63
2022-11-17T21:30:37.582Z,-2.63
2022-11-17T21:33:41.058Z,-2.65
2022-11-17T21:36:44.136Z,-2.67
2022-11-17T21:39:47.471Z,-2.72
2022-11-17T21:42:50.570Z,-2.79
2022-11-17T21:45:54.188Z,-2.85
2022-11-17T21:48:58.610Z,-2.91
2022-11-17T21:52:01.580Z,-2.94
2022-11-17T21:55:05.550Z,-3.01
2022-11-17T21:58:08.666Z,-3.02
2022-11-17T22:01:14.250Z,-3.04
2022-11-17T22:04:17.465Z,-3.09
2022-11-17T22:07:20.590Z,-3.07
2022-11-17T22:10:23.779Z,-3.01
2022-11-17T22:13:26.889Z,-3.03
2022-11-17T22:16:29.917Z,-3.14
2022-11-17T22:19:34.386Z,-3.47
2022-11-17T22:22:37.471Z,-3.80
2022-11-17T22:25:45.562Z,-3.88
2022-11-17T22:28:53.731Z,-3.90
2022-11-17T22:31:57.087Z,-3.87
2022-11-17T22:35:02.355Z,-3.72
2022-11-17T22:38:05.477Z,-3.55
2022-11-17T22:41:09.011Z,-3.35
2022-11-17T22:44:16.366Z,-3.17
2022-11-17T22:47:19.515Z,-3.01
2022-11-17T22:50:22.642Z,-2.91
2022-11-17T22:53:25.855Z,-2.82
2022-11-17T22:56:28.948Z,-2.75
2022-11-17T22:59:32.090Z,-2.69
2022-11-17T23:02:35.182Z,-2.68
2022-11-17T23:05:38.764Z,-2.69
2022-11-17T23:08:41.816Z,-2.65
2022-11-17T23:11:44.866Z,-2.67
2022-11-17T23:14:47.941Z,-2.66
2022-11-17T23:17:50.951Z,-2.65
2022-11-17T23:20:54.022Z,-2.56
2022-11-17T23:23:57.071Z,-2.42
2022-11-17T23:27:00.085Z,-2.31
2022-11-17T23:30:03.435Z,-2.26
2022-11-17T23:33:06.584Z,-2.19
2022-11-17T23:36:14.552Z,-2.19
2022-11-17T23:39:17.750Z,-2.27
2022-11-17T23:42:21.015Z,-2.28
2022-11-17T23:45:24.448Z,-2.30
2022-11-17T23:48:27.819Z,-2.34
2022-11-17T23:51:31.110Z,-2.35
2022-11-17T23:54:34.153Z,-2.31
2022-11-17T23:57:37.216Z,-2.17
